KCBE/CBE METAR and TAF weather

Enter ICAO airport designator
Station Type Date Time Source
KCBE METAR 2018/01/24 07:17 UTC NOAA

KCBE 240717Z AUTO 26013G19KT 10SM BKN036 BKN065 05/M01 A2997 RMK AO1


Station Type Date Time Source
KCBE Decoded METAR 2018/01/24 07:17 UTC NOAA

Cumberland, Greater Cumberland Regional Airport, MD, United States (KCBE) 39-36-55N 078-45-39W
Jan 24, 2018 - 02:17 AM EST / 2018.01.24 0717 UTC
Wind: from the W (260 degrees) at 15 MPH (13 KT) gusting to 22 MPH (19 KT):0
Visibility: 10 mile(s):0
Sky conditions: mostly cloudy
Temperature: 41 F (5 C)
Dew Point: 30 F (-1 C)
Relative Humidity: 65%
Pressure (altimeter): 29.97 in. Hg (1014 hPa)
ob: KCBE 240717Z AUTO 26013G19KT 10SM BKN036 BKN065 05/M01 A2997 RMK AO1
cycle: 7

Station Type Date Time Source
KCBE TAF UTC NOAA

Error!


Example: see airport list